createdAt,value
2023-02-11T00:02:25.667Z,16.66
2023-02-11T00:04:52.375Z,15.48
2023-02-11T00:07:19.011Z,16.94
2023-02-11T00:09:45.643Z,16.74
2023-02-11T00:12:12.299Z,16.32
2023-02-11T00:14:38.976Z,15.98
2023-02-11T00:17:05.638Z,16.15
2023-02-11T00:19:32.314Z,15.53
2023-02-11T00:21:58.963Z,16.80
2023-02-11T00:24:25.641Z,16.17
2023-02-11T00:26:52.302Z,16.78
2023-02-11T00:29:19.002Z,16.01
2023-02-11T00:31:45.760Z,16.62
2023-02-11T00:34:12.485Z,17.34
2023-02-11T00:36:39.176Z,16.82
2023-02-11T00:39:05.809Z,16.75
2023-02-11T00:41:32.459Z,16.22
2023-02-11T00:43:59.238Z,16.01
2023-02-11T00:46:25.952Z,15.85
2023-02-11T00:48:52.687Z,16.43
2023-02-11T00:51:19.348Z,16.60
2023-02-11T00:53:46.041Z,16.56
2023-02-11T00:56:12.767Z,17.35
2023-02-11T00:58:39.428Z,17.35
2023-02-11T01:01:06.107Z,16.84
2023-02-11T01:03:32.800Z,17.01
2023-02-11T01:05:59.490Z,16.87
2023-02-11T01:08:26.237Z,16.84
2023-02-11T01:11:00.119Z,16.62
2023-02-11T01:13:27.057Z,16.19
2023-02-11T01:15:53.975Z,15.26
2023-02-11T01:18:20.763Z,15.79
2023-02-11T01:20:47.430Z,14.94
2023-02-11T01:23:14.095Z,14.36
2023-02-11T01:25:40.749Z,14.04
2023-02-11T01:28:07.465Z,13.78
2023-02-11T01:30:34.161Z,13.38
2023-02-11T01:33:00.816Z,11.93
2023-02-11T01:35:27.479Z,12.15
2023-02-11T01:37:54.123Z,13.26
2023-02-11T01:40:20.825Z,14.12
2023-02-11T01:42:49.996Z,14.06
2023-02-11T01:45:45.313Z,14.13
2023-02-11T01:48:16.007Z,14.33
2023-02-11T01:50:42.665Z,13.75
2023-02-11T01:53:09.327Z,13.68
2023-02-11T01:55:35.995Z,13.38
2023-02-11T01:58:02.873Z,11.10
2023-02-11T02:00:38.071Z,9.59
2023-02-11T02:03:13.230Z,9.77
2023-02-11T02:05:51.108Z,10.13
2023-02-11T02:08:27.114Z,10.43
2023-02-11T02:10:53.748Z,11.41
2023-02-11T02:13:20.494Z,11.47
2023-02-11T02:16:04.517Z,12.31
2023-02-11T02:18:37.160Z,11.86
2023-02-11T02:21:38.637Z,12.64
2023-02-11T02:24:38.543Z,13.86
2023-02-11T02:27:32.391Z,13.69
2023-02-11T02:30:27.090Z,14.20
2023-02-11T02:33:21.951Z,13.98
2023-02-11T02:36:13.108Z,13.64
2023-02-11T02:38:51.092Z,13.95
2023-02-11T02:41:19.358Z,14.06
2023-02-11T02:43:48.352Z,13.72
2023-02-11T02:46:21.234Z,13.32
2023-02-11T02:48:48.055Z,13.96
2023-02-11T02:51:39.845Z,13.64
2023-02-11T02:54:31.293Z,13.93
2023-02-11T02:57:36.818Z,13.50
2023-02-11T03:00:12.570Z,14.17
2023-02-11T03:03:05.393Z,14.63
2023-02-11T03:05:48.979Z,14.35
2023-02-11T03:08:34.354Z,13.53
2023-02-11T03:11:01.307Z,14.38
2023-02-11T03:13:30.022Z,13.53
2023-02-11T03:15:57.414Z,14.23
2023-02-11T03:18:26.221Z,13.93
2023-02-11T03:20:53.167Z,14.53
2023-02-11T03:23:34.959Z,14.17
2023-02-11T03:26:25.279Z,13.98
2023-02-11T03:28:56.064Z,13.49
2023-02-11T03:31:37.095Z,13.92
2023-02-11T03:34:31.484Z,14.19
2023-02-11T03:37:02.101Z,14.25
2023-02-11T03:39:44.697Z,13.72
2023-02-11T03:42:11.368Z,13.92
2023-02-11T03:44:41.952Z,14.21
2023-02-11T03:47:09.324Z,13.48
2023-02-11T03:49:36.124Z,13.83
2023-02-11T03:52:02.797Z,13.52
2023-02-11T03:54:30.282Z,14.01
2023-02-11T03:56:58.557Z,13.76
2023-02-11T03:59:25.438Z,12.62
2023-02-11T04:01:52.102Z,12.66
2023-02-11T04:04:18.782Z,12.55
2023-02-11T04:06:45.574Z,13.03
2023-02-11T04:09:12.347Z,13.03
2023-02-11T04:11:39.038Z,12.56
2023-02-11T04:14:05.680Z,12.57
2023-02-11T04:16:32.386Z,12.56
2023-02-11T04:18:59.152Z,12.75
2023-02-11T04:21:25.796Z,12.03
2023-02-11T04:23:52.486Z,12.84
2023-02-11T04:26:19.145Z,12.42
2023-02-11T04:28:45.778Z,12.17
2023-02-11T04:31:12.512Z,12.15
2023-02-11T04:33:39.203Z,11.56
2023-02-11T04:36:06.181Z,11.45
2023-02-11T04:38:32.816Z,11.81
2023-02-11T04:40:59.581Z,12.28
2023-02-11T04:43:26.302Z,11.72
2023-02-11T04:45:53.679Z,11.33
2023-02-11T04:48:20.501Z,11.69
2023-02-11T04:50:47.161Z,11.97
2023-02-11T04:53:13.811Z,11.96
2023-02-11T04:55:40.513Z,11.77
2023-02-11T04:58:07.179Z,12.18
2023-02-11T05:00:34.596Z,11.77
2023-02-11T05:03:01.372Z,11.68
2023-02-11T05:05:28.018Z,10.54
2023-02-11T05:07:54.672Z,10.19
2023-02-11T05:10:21.339Z,11.41
2023-02-11T05:12:48.779Z,12.12
2023-02-11T05:15:15.747Z,11.68
2023-02-11T05:17:42.416Z,11.82
2023-02-11T05:20:09.690Z,11.86
2023-02-11T05:22:36.390Z,12.18
2023-02-11T05:25:03.067Z,11.78
2023-02-11T05:27:29.719Z,11.78
2023-02-11T05:29:56.355Z,11.61
2023-02-11T05:32:23.051Z,10.26
2023-02-11T05:34:49.698Z,9.73
2023-02-11T05:37:16.819Z,8.81
2023-02-11T05:39:43.469Z,8.42
2023-02-11T05:42:10.172Z,9.01
2023-02-11T05:44:36.805Z,9.63
2023-02-11T05:47:03.555Z,10.25
2023-02-11T05:49:30.431Z,10.80
2023-02-11T05:51:57.467Z,10.41
2023-02-11T05:54:25.289Z,10.61
2023-02-11T05:56:51.948Z,10.90
2023-02-11T05:59:18.615Z,10.69
2023-02-11T06:01:45.251Z,11.17
2023-02-11T06:04:11.905Z,11.22
2023-02-11T06:06:38.644Z,11.30
2023-02-11T06:09:05.318Z,11.51
2023-02-11T06:11:32.009Z,11.52
2023-02-11T06:13:58.660Z,11.63
2023-02-11T06:16:25.766Z,11.80
2023-02-11T06:18:53.304Z,12.31
2023-02-11T06:21:21.936Z,12.40
2023-02-11T06:23:49.653Z,11.84
2023-02-11T06:26:22.283Z,12.37
2023-02-11T06:28:49.893Z,11.97
2023-02-11T06:31:17.622Z,12.44
2023-02-11T06:33:46.280Z,12.61
2023-02-11T06:36:16.011Z,12.28
2023-02-11T06:38:43.650Z,12.26
2023-02-11T06:41:14.014Z,12.47
2023-02-11T06:43:42.915Z,12.07
2023-02-11T06:46:09.666Z,12.18
2023-02-11T06:48:38.122Z,12.75
2023-02-11T06:51:06.725Z,13.63
2023-02-11T06:53:38.411Z,13.50
2023-02-11T06:56:06.002Z,14.46
2023-02-11T06:58:32.708Z,14.37
2023-02-11T07:01:00.194Z,13.94
2023-02-11T07:03:28.803Z,13.93
2023-02-11T07:05:56.393Z,14.37
2023-02-11T07:08:24.000Z,13.15
2023-02-11T07:10:51.581Z,13.06
2023-02-11T07:13:18.292Z,13.04
2023-02-11T07:15:45.872Z,13.25
2023-02-11T07:18:14.720Z,14.29
2023-02-11T07:20:41.956Z,13.74
2023-02-11T07:23:09.558Z,13.54
2023-02-11T07:25:37.154Z,13.24
2023-02-11T07:28:03.920Z,12.79
2023-02-11T07:30:30.597Z,12.59
2023-02-11T07:32:57.255Z,12.43
2023-02-11T07:35:23.884Z,12.26
2023-02-11T07:37:50.501Z,13.29
2023-02-11T07:40:17.139Z,13.62
2023-02-11T07:42:43.774Z,13.52
2023-02-11T07:45:10.436Z,13.92
2023-02-11T07:47:37.081Z,14.22
2023-02-11T07:50:03.719Z,13.93
2023-02-11T07:52:33.264Z,13.28
2023-02-11T07:54:59.916Z,13.11
2023-02-11T07:57:26.765Z,13.00
2023-02-11T07:59:53.488Z,12.58
2023-02-11T08:02:20.157Z,12.45
2023-02-11T08:04:47.046Z,12.58
2023-02-11T08:07:17.273Z,12.09
2023-02-11T08:09:43.956Z,12.00
2023-02-11T08:12:10.594Z,13.22
2023-02-11T08:14:37.302Z,11.75
2023-02-11T08:17:03.954Z,11.81
2023-02-11T08:19:30.690Z,11.64
2023-02-11T08:21:57.937Z,11.41
2023-02-11T08:24:24.581Z,11.26
2023-02-11T08:26:51.233Z,11.46
2023-02-11T08:29:17.872Z,10.83
2023-02-11T08:31:45.901Z,11.01
2023-02-11T08:34:12.903Z,10.43
2023-02-11T08:36:39.753Z,10.88
2023-02-11T08:39:18.592Z,11.39
2023-02-11T08:41:47.349Z,12.03
2023-02-11T08:44:14.041Z,11.87
2023-02-11T08:46:40.676Z,11.01
2023-02-11T08:49:07.420Z,11.54
2023-02-11T08:51:34.043Z,11.57
2023-02-11T08:54:00.675Z,11.72
2023-02-11T08:56:27.374Z,11.60
2023-02-11T08:58:54.491Z,11.55
2023-02-11T09:01:26.270Z,11.86
2023-02-11T09:03:53.015Z,11.31
2023-02-11T09:06:19.713Z,11.61
2023-02-11T09:08:47.901Z,11.11
2023-02-11T09:11:14.543Z,11.59
2023-02-11T09:13:41.936Z,11.57
2023-02-11T09:16:09.552Z,11.50
2023-02-11T09:18:36.471Z,11.42
2023-02-11T09:21:04.185Z,11.19
2023-02-11T09:23:30.850Z,11.50
2023-02-11T09:25:57.562Z,10.86
2023-02-11T09:28:24.248Z,11.57
2023-02-11T09:30:51.325Z,10.95
2023-02-11T09:33:18.161Z,11.15
2023-02-11T09:35:44.813Z,11.24
2023-02-11T09:38:11.440Z,12.97
2023-02-11T09:40:42.727Z,13.40
2023-02-11T09:43:19.420Z,13.21
2023-02-11T09:45:46.101Z,14.58
2023-02-11T09:48:17.731Z,13.28
2023-02-11T09:50:50.302Z,12.98
2023-02-11T09:53:27.541Z,13.06
2023-02-11T09:55:55.847Z,13.01
2023-02-11T09:58:27.873Z,13.21
2023-02-11T10:01:08.808Z,13.65
2023-02-11T10:03:35.375Z,14.24
2023-02-11T10:06:13.816Z,13.81
2023-02-11T10:09:02.136Z,13.56
2023-02-11T10:11:53.530Z,12.87
2023-02-11T10:14:29.871Z,13.91
2023-02-11T10:17:18.977Z,15.18
2023-02-11T10:19:54.613Z,15.12
2023-02-11T10:22:36.795Z,16.37
2023-02-11T10:25:16.473Z,16.91
2023-02-11T10:27:43.107Z,17.58
2023-02-11T10:30:18.668Z,17.78
2023-02-11T10:32:48.650Z,18.82
2023-02-11T10:35:20.254Z,20.33
2023-02-11T10:37:47.112Z,19.54
2023-02-11T10:40:17.900Z,17.87
2023-02-11T10:42:47.104Z,16.93
2023-02-11T10:45:31.836Z,17.97
2023-02-11T10:48:00.862Z,20.61
2023-02-11T10:50:31.484Z,17.76
2023-02-11T10:53:17.280Z,17.49
2023-02-11T10:55:57.789Z,18.08
2023-02-11T10:58:45.223Z,18.58
2023-02-11T11:01:23.846Z,20.30
2023-02-11T11:03:52.084Z,20.74
2023-02-11T11:06:31.478Z,22.53
2023-02-11T11:08:58.192Z,24.81
2023-02-11T11:11:25.357Z,25.29
2023-02-11T11:13:57.477Z,25.62
2023-02-11T11:16:32.767Z,28.07
2023-02-11T11:19:08.300Z,29.00
2023-02-11T11:21:45.051Z,28.63
2023-02-11T11:24:34.976Z,29.89
2023-02-11T11:27:02.655Z,28.47
2023-02-11T11:29:29.136Z,28.71
2023-02-11T11:32:03.439Z,30.29
2023-02-11T11:34:32.172Z,29.86
2023-02-11T11:36:59.617Z,29.57
2023-02-11T11:39:32.797Z,29.88
2023-02-11T11:42:24.127Z,30.57
2023-02-11T11:45:04.133Z,31.25
2023-02-11T11:47:53.533Z,30.78
2023-02-11T11:50:26.137Z,30.46
2023-02-11T11:53:00.264Z,31.21
2023-02-11T11:55:45.274Z,31.08
2023-02-11T11:58:21.969Z,31.39
2023-02-11T12:00:53.803Z,30.63
2023-02-11T12:03:44.545Z,31.82
2023-02-11T12:06:21.114Z,32.32
2023-02-11T12:09:02.381Z,33.03
2023-02-11T12:12:07.911Z,33.93
2023-02-11T12:15:04.305Z,34.22
2023-02-11T12:17:38.239Z,35.13
2023-02-11T12:20:16.945Z,35.80
2023-02-11T12:22:56.774Z,34.71
2023-02-11T12:25:46.761Z,35.21
2023-02-11T12:28:20.542Z,34.86
2023-02-11T12:31:21.790Z,35.52
2023-02-11T12:33:57.393Z,34.56
2023-02-11T12:36:23.890Z,34.81
2023-02-11T12:38:50.370Z,35.44
2023-02-11T12:41:32.685Z,34.25
2023-02-11T12:43:59.500Z,35.95
2023-02-11T12:46:43.242Z,35.70
2023-02-11T12:49:34.017Z,35.10
2023-02-11T12:52:08.355Z,36.31
2023-02-11T12:54:36.900Z,36.00
2023-02-11T12:57:03.946Z,34.55
2023-02-11T13:00:07.735Z,34.72
2023-02-11T13:02:36.610Z,34.70
2023-02-11T13:05:31.782Z,33.56
2023-02-11T13:08:12.645Z,32.42
2023-02-11T13:10:41.138Z,33.98
2023-02-11T13:13:37.258Z,33.50
2023-02-11T13:16:06.559Z,34.19
2023-02-11T13:18:54.040Z,33.43
2023-02-11T13:21:34.838Z,32.29
2023-02-11T13:24:07.973Z,32.27
2023-02-11T13:27:02.128Z,30.93
2023-02-11T13:29:50.507Z,30.90
2023-02-11T13:32:17.156Z,30.43
2023-02-11T13:34:43.674Z,30.32
2023-02-11T13:37:36.164Z,30.56
2023-02-11T13:40:10.167Z,30.87
2023-02-11T13:42:50.989Z,30.90
2023-02-11T13:45:18.698Z,30.73
2023-02-11T13:47:45.332Z,30.34
2023-02-11T13:50:21.863Z,29.30
2023-02-11T13:52:48.503Z,29.61
2023-02-11T13:55:21.280Z,29.33
2023-02-11T13:58:05.926Z,29.22
2023-02-11T14:00:35.391Z,29.98
2023-02-11T14:03:11.003Z,29.36
2023-02-11T14:05:37.666Z,29.08
2023-02-11T14:08:09.908Z,29.06
2023-02-11T14:10:42.455Z,29.71
2023-02-11T14:13:25.112Z,28.85
2023-02-11T14:16:06.911Z,29.57
2023-02-11T14:18:37.446Z,29.58
2023-02-11T14:21:11.491Z,29.69
2023-02-11T14:23:38.146Z,30.12
2023-02-11T14:26:20.132Z,29.73
2023-02-11T14:28:54.479Z,30.19
2023-02-11T14:31:26.453Z,29.70
2023-02-11T14:34:21.383Z,27.68
2023-02-11T14:36:54.894Z,27.08
2023-02-11T14:40:00.877Z,26.82
2023-02-11T14:42:28.045Z,26.42
2023-02-11T14:45:02.847Z,26.91
2023-02-11T14:47:34.482Z,26.90
2023-02-11T14:50:01.123Z,26.72
2023-02-11T14:52:29.469Z,26.23
2023-02-11T14:55:17.788Z,27.86
2023-02-11T14:57:44.666Z,28.44
2023-02-11T15:00:16.560Z,27.86
2023-02-11T15:02:43.443Z,27.34
2023-02-11T15:05:21.913Z,26.87
2023-02-11T15:07:50.459Z,26.22
2023-02-11T15:10:19.074Z,27.52
2023-02-11T15:12:45.837Z,26.99
2023-02-11T15:15:12.488Z,26.19
2023-02-11T15:17:39.140Z,25.49
2023-02-11T15:20:06.597Z,24.63
2023-02-11T15:22:33.757Z,24.06
2023-02-11T15:25:08.743Z,24.49
2023-02-11T15:27:44.379Z,23.29
2023-02-11T15:30:23.929Z,22.68
2023-02-11T15:32:51.236Z,23.06
2023-02-11T15:35:18.158Z,23.69
2023-02-11T15:37:44.878Z,24.49
2023-02-11T15:40:12.362Z,24.53
2023-02-11T15:42:52.132Z,23.55
2023-02-11T15:45:19.588Z,23.30
2023-02-11T15:47:51.113Z,22.82
2023-02-11T15:50:31.641Z,22.42
2023-02-11T15:53:00.498Z,21.96
2023-02-11T15:55:27.148Z,20.88
2023-02-11T15:57:55.341Z,20.59
2023-02-11T16:00:23.833Z,21.22
2023-02-11T16:02:50.479Z,21.19
2023-02-11T16:05:31.817Z,20.74
2023-02-11T16:07:58.738Z,21.28
2023-02-11T16:10:29.355Z,20.11
2023-02-11T16:13:05.769Z,20.48
2023-02-11T16:15:35.282Z,20.27
2023-02-11T16:18:02.471Z,20.02
2023-02-11T16:20:29.130Z,19.32
2023-02-11T16:22:55.776Z,20.24
2023-02-11T16:25:23.228Z,20.21
2023-02-11T16:27:51.723Z,19.91
2023-02-11T16:30:23.820Z,19.15
2023-02-11T16:32:50.475Z,19.23
2023-02-11T16:35:17.177Z,19.52
2023-02-11T16:37:43.818Z,18.69
2023-02-11T16:40:11.849Z,18.45
2023-02-11T16:42:38.496Z,18.74
2023-02-11T16:45:06.700Z,18.55
2023-02-11T16:47:35.434Z,18.23
2023-02-11T16:50:02.268Z,18.08
2023-02-11T16:52:28.953Z,18.81
2023-02-11T16:54:55.607Z,18.36
2023-02-11T16:57:23.611Z,19.18
2023-02-11T16:59:50.335Z,18.87
2023-02-11T17:02:22.860Z,20.65
2023-02-11T17:04:50.567Z,20.32
2023-02-11T17:07:17.323Z,20.50
2023-02-11T17:09:44.704Z,22.75
2023-02-11T17:12:11.361Z,23.09
2023-02-11T17:14:38.022Z,22.20
2023-02-11T17:17:04.669Z,22.99
2023-02-11T17:19:31.336Z,23.73
2023-02-11T17:21:58.035Z,23.44
2023-02-11T17:24:24.669Z,25.75
2023-02-11T17:26:51.311Z,27.97
2023-02-11T17:29:22.516Z,27.48
2023-02-11T17:31:49.474Z,24.03
2023-02-11T17:34:16.554Z,24.54
2023-02-11T17:36:43.214Z,26.14
2023-02-11T17:39:09.861Z,31.71
2023-02-11T17:41:37.151Z,34.54
2023-02-11T17:44:04.038Z,36.31
2023-02-11T17:46:30.724Z,35.64
2023-02-11T17:48:58.240Z,32.46
2023-02-11T17:51:27.774Z,27.55
2023-02-11T17:53:54.444Z,26.22
2023-02-11T17:56:21.084Z,26.48
2023-02-11T17:58:47.781Z,25.97
2023-02-11T18:01:14.496Z,26.71
2023-02-11T18:03:41.199Z,32.52
2023-02-11T18:06:07.940Z,38.07
2023-02-11T18:08:34.893Z,42.72
2023-02-11T18:11:01.561Z,33.34
2023-02-11T18:13:28.289Z,29.91
2023-02-11T18:15:55.099Z,40.79
2023-02-11T18:18:21.761Z,43.54
2023-02-11T18:20:58.636Z,42.15
2023-02-11T18:23:25.477Z,39.72
2023-02-11T18:25:52.510Z,36.08
2023-02-11T18:28:19.374Z,34.51
2023-02-11T18:30:46.062Z,33.33
2023-02-11T18:33:12.749Z,36.07
2023-02-11T18:35:39.649Z,37.93
2023-02-11T18:38:06.322Z,37.58
2023-02-11T18:40:34.030Z,35.27
2023-02-11T18:43:00.654Z,35.75
2023-02-11T18:45:27.344Z,34.54
2023-02-11T18:47:54.107Z,37.29
2023-02-11T18:50:20.754Z,35.95
2023-02-11T18:52:47.790Z,37.94
2023-02-11T18:55:14.606Z,39.97
2023-02-11T18:57:41.260Z,39.42
2023-02-11T19:00:08.528Z,37.60
2023-02-11T19:02:35.407Z,37.38
2023-02-11T19:05:02.486Z,38.03
2023-02-11T19:07:29.410Z,38.76
2023-02-11T19:09:56.110Z,39.38
2023-02-11T19:12:22.780Z,37.24
2023-02-11T19:14:49.453Z,37.82
2023-02-11T19:17:16.101Z,42.08
2023-02-11T19:19:42.751Z,43.22
2023-02-11T19:22:10.804Z,40.46
2023-02-11T19:24:37.620Z,39.96
2023-02-11T19:27:04.360Z,38.73
2023-02-11T19:29:30.995Z,37.40
2023-02-11T19:31:57.715Z,35.28
2023-02-11T19:34:24.477Z,34.12
2023-02-11T19:36:51.145Z,32.60
2023-02-11T19:39:17.786Z,31.38
2023-02-11T19:41:44.499Z,32.25
2023-02-11T19:44:11.164Z,31.58
2023-02-11T19:46:38.479Z,31.41
2023-02-11T19:49:05.316Z,32.23
2023-02-11T19:51:31.965Z,34.62
2023-02-11T19:53:58.651Z,35.37
2023-02-11T19:56:25.523Z,35.73
2023-02-11T19:58:52.217Z,36.21
2023-02-11T20:01:19.913Z,35.81
2023-02-11T20:03:50.048Z,39.01
2023-02-11T20:06:20.459Z,38.75
2023-02-11T20:08:47.127Z,37.67
2023-02-11T20:11:16.524Z,37.98
2023-02-11T20:13:43.219Z,38.24
2023-02-11T20:16:12.027Z,35.64
2023-02-11T20:18:39.310Z,34.64
2023-02-11T20:21:07.594Z,35.17
2023-02-11T20:23:34.578Z,37.36
2023-02-11T20:26:12.805Z,36.64
2023-02-11T20:28:39.485Z,34.18
2023-02-11T20:31:06.398Z,33.22
2023-02-11T20:33:33.226Z,34.22
2023-02-11T20:36:01.723Z,36.07
2023-02-11T20:38:28.379Z,35.29
2023-02-11T20:40:55.103Z,36.65
2023-02-11T20:43:21.924Z,36.07
2023-02-11T20:45:48.622Z,36.81
2023-02-11T20:48:15.276Z,36.24
2023-02-11T20:50:41.948Z,33.32
2023-02-11T20:53:08.589Z,32.92
2023-02-11T20:55:37.466Z,33.24
2023-02-11T20:58:05.405Z,34.78
2023-02-11T21:00:32.060Z,32.93
2023-02-11T21:02:58.779Z,34.81
2023-02-11T21:05:25.457Z,33.96
2023-02-11T21:07:53.127Z,33.18
2023-02-11T21:10:19.850Z,32.67
2023-02-11T21:12:49.533Z,34.04
2023-02-11T21:15:16.533Z,35.09
2023-02-11T21:17:43.237Z,33.27
2023-02-11T21:20:10.244Z,33.57
2023-02-11T21:22:36.942Z,32.21
2023-02-11T21:25:03.716Z,31.78
2023-02-11T21:27:30.395Z,32.26
2023-02-11T21:29:57.067Z,32.07
2023-02-11T21:32:23.835Z,30.25
2023-02-11T21:34:50.558Z,30.85
2023-02-11T21:37:17.207Z,30.14
2023-02-11T21:39:43.862Z,28.49
2023-02-11T21:42:10.643Z,29.96
2023-02-11T21:44:37.324Z,30.17
2023-02-11T21:47:04.019Z,29.54
2023-02-11T21:49:30.717Z,32.49
2023-02-11T21:51:57.420Z,30.89
2023-02-11T21:54:24.165Z,29.68
2023-02-11T21:56:50.846Z,30.04
2023-02-11T21:59:17.501Z,30.25
2023-02-11T22:01:44.991Z,29.77
2023-02-11T22:04:11.859Z,28.18
2023-02-11T22:06:38.575Z,26.71
2023-02-11T22:09:06.525Z,24.03
2023-02-11T22:11:33.248Z,22.84
2023-02-11T22:13:59.931Z,23.26
2023-02-11T22:16:27.073Z,22.51
2023-02-11T22:18:53.821Z,23.63
2023-02-11T22:21:21.849Z,23.64
2023-02-11T22:23:48.672Z,23.42
2023-02-11T22:26:17.041Z,22.73
2023-02-11T22:28:43.780Z,21.62
2023-02-11T22:31:15.138Z,22.14
2023-02-11T22:33:41.866Z,20.18
2023-02-11T22:36:12.583Z,20.57
2023-02-11T22:38:39.242Z,20.62
2023-02-11T22:41:07.087Z,20.79
2023-02-11T22:43:33.754Z,20.41
2023-02-11T22:46:01.332Z,19.85
2023-02-11T22:48:28.023Z,20.28
2023-02-11T22:50:54.689Z,19.75
2023-02-11T22:53:21.338Z,20.29
2023-02-11T22:55:48.088Z,19.99
2023-02-11T22:58:14.720Z,20.29
2023-02-11T23:00:41.386Z,20.49
2023-02-11T23:03:08.175Z,20.79
2023-02-11T23:05:41.252Z,23.74
2023-02-11T23:08:08.718Z,24.46
2023-02-11T23:10:36.200Z,21.70
2023-02-11T23:13:03.560Z,20.47
2023-02-11T23:15:30.258Z,19.83
2023-02-11T23:17:56.932Z,20.13
2023-02-11T23:20:23.613Z,19.68
2023-02-11T23:22:50.251Z,20.11
2023-02-11T23:25:16.905Z,20.44
2023-02-11T23:27:43.576Z,19.90
2023-02-11T23:30:10.621Z,19.97
2023-02-11T23:32:40.022Z,19.79
2023-02-11T23:35:06.698Z,19.95
2023-02-11T23:37:33.375Z,19.42
2023-02-11T23:40:00.004Z,19.73
2023-02-11T23:42:26.643Z,19.81
2023-02-11T23:44:53.307Z,19.70
2023-02-11T23:47:19.948Z,20.13
2023-02-11T23:49:46.602Z,19.72
2023-02-11T23:52:13.249Z,19.88
2023-02-11T23:54:40.023Z,19.99
2023-02-11T23:57:06.696Z,20.08
2023-02-11T23:59:33.365Z,19.94
